Time;durP1;ratioP1;P1;durP2;ratioP2;P2;SDS_P1;SDS_P2;PMS_P1;PMS_P2;Temp;Humidity;BMP_temperature;BMP_pressure;BME280_temperature;BME280_humidity;BME280_pressure;Samples;Min_cycle;Max_cycle;Signal;HPM_P1;HPM_P2
2022/10/30 00:00:39;;;;;;;46.45;22.92;;;12.00;99.90;;;;;;5053751;28;20025;-72
2022/10/30 00:03:05;;;;;;;51.22;23.80;;;12.00;99.90;;;;;;5054031;28;20025;-72
2022/10/30 00:05:30;;;;;;;41.22;22.10;;;12.00;99.90;;;;;;5053730;28;20112;-72
2022/10/30 00:07:57;;;;;;;41.67;22.73;;;12.00;99.90;;;;;;5053648;28;20025;-72
2022/10/30 00:10:23;;;;;;;52.03;25.58;;;11.90;99.90;;;;;;5053783;28;20096;-72
2022/10/30 00:12:49;;;;;;;50.03;24.27;;;11.90;99.90;;;;;;5053866;28;20029;-72
2022/10/30 00:15:14;;;;;;;50.45;25.45;;;12.00;99.90;;;;;;5053550;28;20358;-72
2022/10/30 00:17:40;;;;;;;52.35;24.80;;;12.00;99.90;;;;;;5055481;28;20021;-72
2022/10/30 00:20:06;;;;;;;50.63;26.25;;;12.00;99.90;;;;;;5053874;28;20036;-72
2022/10/30 00:22:33;;;;;;;64.70;28.38;;;12.00;99.90;;;;;;5063452;28;20033;-72
2022/10/30 00:24:59;;;;;;;69.57;29.80;;;12.00;99.90;;;;;;5073426;28;20024;-72
2022/10/30 00:27:24;;;;;;;66.38;31.52;;;12.00;99.90;;;;;;5073361;28;20020;-72
2022/10/30 00:29:49;;;;;;;83.03;36.95;;;12.10;99.90;;;;;;5073736;28;20032;-72
2022/10/30 00:32:15;;;;;;;76.63;33.42;;;12.10;99.90;;;;;;5073362;28;20365;-72
2022/10/30 00:34:40;;;;;;;80.18;36.90;;;12.10;99.90;;;;;;5064902;28;20068;-72
2022/10/30 00:37:06;;;;;;;74.15;32.28;;;12.20;99.90;;;;;;5053878;28;20112;-72
2022/10/30 00:39:31;;;;;;;83.60;34.25;;;12.20;99.90;;;;;;5053301;28;20025;-72
2022/10/30 00:41:57;;;;;;;86.18;34.65;;;12.20;99.90;;;;;;5053268;28;20029;-72
2022/10/30 00:44:44;;;;;;;70.32;33.25;;;12.20;99.90;;;;;;5053234;28;20036;-72
2022/10/30 00:47:23;;;;;;;68.90;34.00;;;12.20;99.90;;;;;;5055725;28;20075;-72
2022/10/30 00:50:13;;;;;;;72.28;32.35;;;12.20;99.90;;;;;;5066898;28;20017;-72
2022/10/30 00:52:45;;;;;;;71.90;32.20;;;12.10;99.90;;;;;;5073759;28;20412;-72
2022/10/30 00:55:18;;;;;;;66.85;32.13;;;12.10;99.90;;;;;;5061996;28;20021;-72
2022/10/30 00:57:46;;;;;;;72.55;31.77;;;12.10;99.90;;;;;;5053332;28;20063;-72
2022/10/30 01:00:13;;;;;;;68.18;30.83;;;12.00;99.90;;;;;;5053174;28;20067;-72
2022/10/30 01:02:42;;;;;;;64.55;30.15;;;12.00;99.90;;;;;;5053402;28;20025;-72
2022/10/30 01:05:09;;;;;;;74.00;31.10;;;12.00;99.90;;;;;;5052927;28;20404;-72
2022/10/30 01:07:34;;;;;;;66.72;32.75;;;12.00;99.90;;;;;;5053025;28;20021;-72
2022/10/30 01:10:00;;;;;;;66.40;29.58;;;11.90;99.90;;;;;;5052861;28;20100;-72
2022/10/30 01:12:25;;;;;;;81.57;32.20;;;11.90;99.90;;;;;;5053028;28;20025;-72
2022/10/30 01:14:56;;;;;;;49.15;25.30;;;11.80;99.90;;;;;;5052888;28;20029;-72
2022/10/30 01:17:34;;;;;;;56.38;27.20;;;11.70;99.90;;;;;;5070396;28;20107;-72
2022/10/30 01:20:29;;;;;;;52.85;26.00;;;11.70;99.90;;;;;;5073578;28;20028;-72
2022/10/30 01:23:03;;;;;;;54.13;27.48;;;11.60;99.90;;;;;;5064154;28;20055;-72
2022/10/30 01:25:46;;;;;;;73.22;31.05;;;11.50;99.90;;;;;;5052759;28;20472;-72
2022/10/30 01:28:24;;;;;;;68.07;29.85;;;11.60;99.90;;;;;;5062021;28;20036;-72
2022/10/30 01:31:11;;;;;;;67.78;32.47;;;11.50;99.90;;;;;;5075497;28;20024;-72
2022/10/30 01:33:39;;;;;;;85.40;36.03;;;11.60;99.90;;;;;;5076847;28;20104;-72
2022/10/30 01:36:08;;;;;;;77.22;34.53;;;11.60;99.90;;;;;;5076427;28;20024;-72
2022/10/30 01:38:41;;;;;;;89.18;34.58;;;11.60;99.90;;;;;;5059690;28;20028;-72
2022/10/30 01:41:06;;;;;;;113.05;35.50;;;11.60;99.90;;;;;;5056703;28;20033;-72
2022/10/30 01:43:33;;;;;;;78.70;35.42;;;11.70;99.90;;;;;;5056466;28;20021;-72
2022/10/30 01:46:20;;;;;;;99.97;39.25;;;11.70;99.90;;;;;;5056157;28;20053;-72
2022/10/30 01:49:17;;;;;;;95.35;40.55;;;11.80;99.90;;;;;;5056556;28;20100;-72
2022/10/30 01:52:20;;;;;;;89.15;36.92;;;11.80;99.90;;;;;;5071765;28;20021;-72
2022/10/30 01:54:56;;;;;;;79.88;35.53;;;11.90;99.90;;;;;;5055928;28;20100;-72
2022/10/30 01:57:46;;;;;;;79.05;35.97;;;11.90;99.90;;;;;;5076044;28;20039;-72
2022/10/30 02:00:15;;;;;;;96.22;39.72;;;11.90;99.90;;;;;;5073281;28;20036;-72
2022/10/30 02:02:41;;;;;;;81.18;39.42;;;11.90;99.90;;;;;;5054936;28;20089;-71
2022/10/30 02:05:10;;;;;;;104.68;40.85;;;11.90;99.90;;;;;;5049765;28;20040;-72
2022/10/30 02:07:36;;;;;;;86.60;37.58;;;11.90;99.90;;;;;;5068354;28;20025;-72
2022/10/30 02:10:03;;;;;;;97.85;40.78;;;11.90;99.90;;;;;;5076228;28;20043;-72
2022/10/30 02:12:28;;;;;;;84.32;35.88;;;11.80;99.90;;;;;;5069752;28;20062;-71
2022/10/30 02:14:57;;;;;;;96.05;40.47;;;11.80;99.90;;;;;;5061149;28;20032;-72
2022/10/30 02:17:24;;;;;;;75.38;34.90;;;11.80;99.90;;;;;;5064735;28;20096;-72
2022/10/30 02:19:49;;;;;;;81.43;33.90;;;11.80;99.90;;;;;;5055991;28;20033;-72
2022/10/30 02:22:16;;;;;;;86.72;36.08;;;11.70;99.90;;;;;;5066692;28;20029;-72
2022/10/30 02:24:43;;;;;;;93.95;39.03;;;11.70;99.90;;;;;;5057148;28;20044;-71
2022/10/30 02:27:09;;;;;;;90.80;39.00;;;11.70;99.90;;;;;;5055636;28;20039;-72
2022/10/30 02:29:34;;;;;;;104.93;41.13;;;11.70;99.90;;;;;;5070455;28;20025;-72
2022/10/30 02:32:00;;;;;;;101.03;43.00;;;11.70;99.90;;;;;;5076065;28;20029;-72
2022/10/30 02:34:26;;;;;;;111.93;43.20;;;11.80;99.90;;;;;;5068924;28;20021;-72
2022/10/30 02:36:51;;;;;;;117.70;44.35;;;11.80;99.90;;;;;;5054351;28;20116;-72
2022/10/30 02:39:18;;;;;;;107.57;44.00;;;11.80;99.90;;;;;;5055335;28;20033;-72
2022/10/30 02:41:44;;;;;;;111.32;45.17;;;11.70;99.90;;;;;;5054994;28;20025;-72
2022/10/30 02:44:10;;;;;;;112.20;43.78;;;11.70;99.90;;;;;;5055285;28;20040;-72
2022/10/30 02:46:35;;;;;;;101.80;41.50;;;11.60;99.90;;;;;;5055207;28;20503;-71
2022/10/30 02:49:01;;;;;;;126.18;45.88;;;11.60;99.90;;;;;;5055037;28;20036;-72
2022/10/30 02:51:27;;;;;;;107.65;41.92;;;11.60;99.90;;;;;;5055455;28;20031;-72
2022/10/30 02:53:53;;;;;;;107.80;43.42;;;11.60;99.90;;;;;;5055114;28;20099;-72
2022/10/30 02:56:18;;;;;;;106.45;41.35;;;11.50;99.90;;;;;;5056780;28;22277;-71
2022/10/30 02:58:44;;;;;;;104.80;43.22;;;11.50;99.90;;;;;;5068914;28;20062;-71
2022/10/30 03:01:14;;;;;;;111.10;44.20;;;11.50;99.90;;;;;;5069672;28;20038;-71
2022/10/30 03:03:41;;;;;;;105.30;43.25;;;11.50;99.90;;;;;;5055596;28;20035;-71
2022/10/30 03:06:09;;;;;;;104.93;42.20;;;11.50;99.90;;;;;;5063977;28;20029;-72
2022/10/30 03:08:36;;;;;;;99.78;40.10;;;11.40;99.90;;;;;;5062663;28;20025;-71
2022/10/30 03:11:04;;;;;;;91.97;38.17;;;11.40;99.90;;;;;;5067039;28;20029;-71
2022/10/30 03:13:31;;;;;;;91.28;38.28;;;11.30;99.90;;;;;;5069882;28;20033;-72
2022/10/30 03:16:01;;;;;;;92.25;39.63;;;11.30;99.90;;;;;;5065609;28;20032;-71
2022/10/30 03:18:27;;;;;;;83.28;37.47;;;11.30;99.90;;;;;;5063441;28;20032;-72
2022/10/30 03:21:01;;;;;;;83.15;36.05;;;11.20;99.90;;;;;;5062837;28;20032;-72
2022/10/30 03:23:27;;;;;;;78.20;34.35;;;11.10;99.90;;;;;;5065807;28;20031;-71
2022/10/30 03:25:54;;;;;;;78.03;36.20;;;11.10;99.90;;;;;;5063111;28;20158;-71
2022/10/30 03:28:24;;;;;;;80.15;36.13;;;11.00;99.90;;;;;;5061034;28;20055;-71
2022/10/30 03:30:51;;;;;;;81.03;34.20;;;11.00;99.90;;;;;;5066079;28;20032;-71
2022/10/30 03:33:17;;;;;;;92.78;35.40;;;11.00;99.90;;;;;;5058706;28;20149;-71
2022/10/30 03:35:45;;;;;;;60.55;31.52;;;10.90;99.90;;;;;;5049696;28;20037;-71
2022/10/30 03:38:12;;;;;;;73.35;32.92;;;10.90;99.90;;;;;;5063977;28;20082;-72
2022/10/30 03:40:37;;;;;;;64.65;31.52;;;10.90;99.90;;;;;;5057696;28;20057;-71
2022/10/30 03:43:03;;;;;;;59.67;29.02;;;10.80;99.90;;;;;;5064827;28;20435;-72
2022/10/30 03:45:30;;;;;;;62.78;29.92;;;10.80;99.90;;;;;;5057673;28;20028;-72
2022/10/30 03:47:56;;;;;;;71.95;31.95;;;10.80;99.90;;;;;;5065529;28;20060;-72
2022/10/30 03:50:21;;;;;;;54.65;27.30;;;10.80;99.90;;;;;;5065976;28;20441;-71
2022/10/30 03:52:47;;;;;;;58.97;29.67;;;10.70;99.90;;;;;;5063406;28;20024;-71
2022/10/30 03:55:12;;;;;;;77.38;35.45;;;10.70;99.90;;;;;;5064656;28;20075;-71
2022/10/30 03:57:38;;;;;;;71.20;33.47;;;10.70;99.90;;;;;;5056942;28;20091;-71
2022/10/30 04:00:05;;;;;;;96.30;39.53;;;10.70;99.90;;;;;;5065764;28;20047;-72
2022/10/30 04:02:30;;;;;;;113.40;40.38;;;10.80;99.90;;;;;;5063634;28;20032;-71
2022/10/30 04:04:55;;;;;;;85.47;38.88;;;10.80;99.90;;;;;;5068688;28;23118;-71
2022/10/30 04:07:21;;;;;;;78.35;36.25;;;10.80;99.90;;;;;;5082741;23;20060;-72
2022/10/30 04:09:46;;;;;;;80.90;35.70;;;10.80;99.90;;;;;;5067090;28;20035;-72
2022/10/30 04:12:12;;;;;;;75.25;36.90;;;10.80;99.90;;;;;;5066630;28;20032;-71
2022/10/30 04:14:37;;;;;;;90.75;35.67;;;10.80;99.90;;;;;;5072633;28;20368;-71
2022/10/30 04:17:05;;;;;;;89.68;37.65;;;10.90;99.90;;;;;;5061729;28;20053;-71
2022/10/30 04:19:30;;;;;;;71.47;33.58;;;10.80;99.90;;;;;;5053161;28;20503;-71
2022/10/30 04:21:56;;;;;;;68.18;33.30;;;10.70;99.90;;;;;;5053150;28;20028;-71
2022/10/30 04:24:22;;;;;;;73.25;32.08;;;10.70;99.90;;;;;;5053129;28;20439;-71
2022/10/30 04:26:48;;;;;;;55.50;28.50;;;10.60;99.90;;;;;;5053477;28;20025;-71
2022/10/30 04:29:13;;;;;;;65.28;31.58;;;10.60;99.90;;;;;;5055502;28;20060;-71
2022/10/30 04:31:39;;;;;;;84.35;38.97;;;10.60;99.90;;;;;;5061739;28;20075;-71
2022/10/30 04:34:04;;;;;;;82.63;36.88;;;10.60;99.90;;;;;;5060156;28;20051;-71
2022/10/30 04:36:32;;;;;;;85.75;35.78;;;10.60;99.90;;;;;;5067361;28;20092;-71
2022/10/30 04:38:58;;;;;;;87.57;36.58;;;10.60;99.90;;;;;;5053027;28;20391;-71
2022/10/30 04:41:24;;;;;;;93.35;40.35;;;10.60;99.90;;;;;;5052773;28;20052;-70
2022/10/30 04:43:51;;;;;;;80.63;34.75;;;10.60;99.90;;;;;;5052986;28;20029;-71
2022/10/30 04:46:16;;;;;;;72.90;32.90;;;10.60;99.90;;;;;;5052760;28;20533;-71
2022/10/30 04:48:43;;;;;;;87.68;34.35;;;10.50;99.90;;;;;;5052961;28;20021;-71
2022/10/30 04:51:10;;;;;;;86.47;37.03;;;10.50;99.90;;;;;;5053090;28;20052;-70
2022/10/30 04:53:37;;;;;;;68.03;34.22;;;10.50;99.90;;;;;;5051840;28;20440;-70
2022/10/30 04:56:03;;;;;;;98.68;38.03;;;10.50;99.90;;;;;;5053025;28;20408;-70
2022/10/30 04:58:28;;;;;;;84.30;37.15;;;10.50;99.90;;;;;;5052979;28;20024;-70
2022/10/30 05:00:54;;;;;;;94.53;40.20;;;10.50;99.90;;;;;;5055334;28;20116;-71
2022/10/30 05:03:22;;;;;;;89.22;38.78;;;10.60;99.90;;;;;;5053192;28;20033;-70
2022/10/30 05:05:57;;;;;;;87.00;38.42;;;10.70;99.90;;;;;;5069363;28;20082;-71
2022/10/30 05:08:23;;;;;;;91.13;41.42;;;10.60;99.90;;;;;;5076774;28;20029;-70
2022/10/30 05:10:48;;;;;;;96.70;43.03;;;10.70;99.90;;;;;;5076324;28;20392;-71
2022/10/30 05:13:15;;;;;;;96.85;42.05;;;10.70;99.90;;;;;;5076806;28;20063;-70
2022/10/30 05:15:40;;;;;;;109.38;45.80;;;10.80;99.90;;;;;;5077070;28;20033;-70
2022/10/30 05:18:06;;;;;;;88.40;38.80;;;10.80;99.90;;;;;;5077316;28;20039;-70
2022/10/30 05:20:31;;;;;;;75.30;36.20;;;10.80;99.90;;;;;;5076678;28;20081;-70
2022/10/30 05:22:58;;;;;;;76.13;34.67;;;10.80;99.90;;;;;;5076993;28;20067;-70
2022/10/30 05:25:25;;;;;;;71.45;32.50;;;10.70;99.90;;;;;;5076849;28;20062;-70
2022/10/30 05:27:56;;;;;;;57.67;31.10;;;10.60;99.90;;;;;;5077096;28;20384;-70
2022/10/30 05:30:21;;;;;;;57.72;29.67;;;10.50;99.90;;;;;;5076883;28;20016;-70
2022/10/30 05:32:47;;;;;;;56.70;28.58;;;10.40;99.90;;;;;;5076804;28;20059;-70
2022/10/30 05:35:12;;;;;;;61.95;29.63;;;10.40;99.90;;;;;;5076711;28;20472;-70
2022/10/30 05:37:38;;;;;;;57.83;28.40;;;10.20;99.90;;;;;;5076350;28;20031;-70
2022/10/30 05:40:04;;;;;;;48.13;26.13;;;10.20;99.90;;;;;;5076613;28;20036;-70
2022/10/30 05:42:29;;;;;;;40.38;25.85;;;10.20;99.90;;;;;;5076256;28;20064;-70
2022/10/30 05:44:55;;;;;;;45.85;26.77;;;10.20;99.90;;;;;;5076249;28;20066;-70
2022/10/30 05:47:20;;;;;;;46.72;27.85;;;10.20;99.90;;;;;;5076226;28;20063;-70
2022/10/30 05:49:46;;;;;;;49.70;27.17;;;10.20;99.90;;;;;;5076478;28;20055;-70
2022/10/30 05:52:11;;;;;;;45.08;25.65;;;10.20;99.90;;;;;;5076961;28;20464;-70
2022/10/30 05:54:37;;;;;;;54.33;27.55;;;10.20;99.90;;;;;;5076448;28;20392;-70
2022/10/30 05:57:02;;;;;;;52.33;28.15;;;10.10;99.90;;;;;;5076002;28;20036;-70
2022/10/30 05:59:28;;;;;;;43.63;24.55;;;10.10;99.90;;;;;;5076304;28;20043;-70
2022/10/30 06:01:54;;;;;;;40.63;23.90;;;10.10;99.90;;;;;;5076485;28;20036;-70
2022/10/30 06:04:20;;;;;;;41.80;23.10;;;10.00;99.90;;;;;;5076011;28;20013;-70
2022/10/30 06:06:45;;;;;;;36.63;20.65;;;9.90;99.90;;;;;;5075708;28;20066;-70
2022/10/30 06:09:11;;;;;;;40.50;20.00;;;9.90;99.90;;;;;;5075912;28;20028;-70
2022/10/30 06:11:36;;;;;;;30.95;19.27;;;9.80;99.90;;;;;;5076059;28;20024;-70
2022/10/30 06:14:02;;;;;;;25.05;15.13;;;9.80;99.90;;;;;;5075842;28;20055;-70
2022/10/30 06:16:27;;;;;;;24.83;16.33;;;9.70;99.90;;;;;;5074959;28;20039;-70
2022/10/30 06:18:53;;;;;;;25.60;16.55;;;9.70;99.90;;;;;;5076283;28;20035;-70
2022/10/30 06:21:18;;;;;;;29.83;16.92;;;9.70;99.90;;;;;;5075844;28;20039;-70
2022/10/30 06:23:44;;;;;;;31.55;19.20;;;9.70;99.90;;;;;;5075619;28;20107;-70
2022/10/30 06:26:09;;;;;;;42.80;23.40;;;9.70;99.90;;;;;;5075554;28;20426;-70
2022/10/30 06:28:35;;;;;;;43.63;24.75;;;9.70;99.90;;;;;;5076047;28;20050;-70
2022/10/30 06:31:00;;;;;;;54.30;27.08;;;9.80;99.90;;;;;;5075991;28;20029;-70
2022/10/30 06:33:26;;;;;;;51.53;27.50;;;9.90;99.90;;;;;;5075394;28;20029;-70
2022/10/30 06:35:51;;;;;;;51.25;27.55;;;9.90;99.90;;;;;;5075563;28;20021;-70
2022/10/30 06:38:17;;;;;;;52.42;27.13;;;10.00;99.90;;;;;;5075371;28;20074;-70
2022/10/30 06:40:43;;;;;;;61.75;30.73;;;10.00;99.90;;;;;;5075256;28;20031;-70
2022/10/30 06:43:08;;;;;;;61.03;29.13;;;10.20;99.90;;;;;;5075717;28;20032;-70
2022/10/30 06:45:34;;;;;;;72.78;31.80;;;10.20;99.90;;;;;;5075127;28;20111;-70
2022/10/30 06:48:02;;;;;;;83.90;33.80;;;10.30;99.90;;;;;;5075147;28;20017;-70
2022/10/30 06:50:28;;;;;;;67.22;33.30;;;10.40;99.90;;;;;;5075043;28;20031;-70
2022/10/30 06:52:54;;;;;;;78.70;33.85;;;10.50;99.90;;;;;;5075325;28;20024;-70
2022/10/30 06:55:20;;;;;;;69.40;33.22;;;10.60;99.90;;;;;;5075485;28;20016;-70
2022/10/30 06:57:51;;;;;;;85.65;35.88;;;10.70;99.90;;;;;;5075187;28;20077;-70
2022/10/30 07:00:17;;;;;;;86.10;35.97;;;10.80;99.90;;;;;;5075196;28;20115;-70
2022/10/30 07:02:42;;;;;;;77.03;35.67;;;10.90;99.90;;;;;;5074771;28;20446;-70
2022/10/30 07:05:08;;;;;;;90.10;35.63;;;10.90;99.90;;;;;;5075296;28;20021;-70
2022/10/30 07:07:33;;;;;;;59.38;32.88;;;11.00;99.90;;;;;;5074794;28;20036;-70
2022/10/30 07:09:59;;;;;;;67.75;33.30;;;11.10;99.90;;;;;;5074898;28;20024;-71
2022/10/30 07:12:24;;;;;;;60.13;32.00;;;11.10;99.90;;;;;;5075422;28;20025;-70
2022/10/30 07:14:50;;;;;;;77.07;34.83;;;11.20;99.90;;;;;;5074747;28;20025;-70
2022/10/30 07:17:16;;;;;;;90.03;37.88;;;11.20;99.90;;;;;;5074650;28;20048;-70
2022/10/30 07:19:41;;;;;;;100.72;38.63;;;11.30;99.90;;;;;;5074749;28;20550;-70
2022/10/30 07:22:06;;;;;;;92.95;37.80;;;11.40;99.90;;;;;;5074827;28;20464;-70
2022/10/30 07:24:32;;;;;;;79.95;36.50;;;11.50;99.90;;;;;;5074687;28;20025;-70
2022/10/30 07:26:57;;;;;;;89.80;36.40;;;11.60;99.90;;;;;;5073616;28;20027;-70
2022/10/30 07:29:23;;;;;;;92.68;36.92;;;11.70;99.90;;;;;;5074059;28;20433;-70
2022/10/30 07:31:48;;;;;;;74.78;35.20;;;11.80;99.90;;;;;;5074988;28;20028;-70
2022/10/30 07:34:15;;;;;;;83.60;36.70;;;11.70;99.90;;;;;;5074416;28;20395;-70
2022/10/30 07:36:40;;;;;;;93.43;37.97;;;11.80;99.90;;;;;;5074063;28;20028;-71
2022/10/30 07:39:06;;;;;;;107.35;41.53;;;11.90;99.90;;;;;;5069115;28;20024;-70
2022/10/30 07:41:31;;;;;;;84.68;36.13;;;11.90;99.90;;;;;;5066425;28;20037;-70
2022/10/30 07:43:57;;;;;;;80.70;36.75;;;11.90;99.90;;;;;;5067126;28;20048;-71
2022/10/30 07:46:22;;;;;;;83.93;34.72;;;11.90;99.90;;;;;;5062894;28;20060;-71
2022/10/30 07:48:48;;;;;;;85.18;37.03;;;11.90;99.90;;;;;;5059818;28;20111;-71
2022/10/30 07:51:14;;;;;;;109.13;39.50;;;11.80;99.90;;;;;;5063989;28;20040;-70
2022/10/30 07:53:40;;;;;;;87.38;37.92;;;11.90;99.90;;;;;;5060431;28;20024;-71
2022/10/30 07:56:05;;;;;;;78.05;33.85;;;11.90;99.90;;;;;;5066896;28;20037;-71
2022/10/30 07:58:31;;;;;;;90.22;36.60;;;11.90;99.90;;;;;;5061189;28;20499;-71
2022/10/30 08:00:57;;;;;;;82.47;36.25;;;12.00;99.90;;;;;;5061551;28;20028;-71
2022/10/30 08:03:22;;;;;;;87.50;37.10;;;12.00;99.90;;;;;;5062725;28;20021;-71
2022/10/30 08:05:48;;;;;;;84.32;35.63;;;12.10;99.90;;;;;;5057332;28;20559;-71
2022/10/30 08:08:13;;;;;;;88.57;37.08;;;12.10;99.90;;;;;;5047139;28;20040;-71
2022/10/30 08:10:39;;;;;;;80.07;35.08;;;12.20;99.90;;;;;;5062079;28;20074;-71
2022/10/30 08:13:04;;;;;;;120.22;45.42;;;12.30;99.90;;;;;;5071330;28;20438;-71
2022/10/30 08:15:31;;;;;;;107.93;40.75;;;12.50;99.90;;;;;;5061220;28;20056;-71
2022/10/30 08:17:57;;;;;;;75.43;35.10;;;12.60;99.90;;;;;;5053356;28;20076;-70
2022/10/30 08:20:23;;;;;;;112.63;40.17;;;12.70;99.90;;;;;;5053251;28;20037;-71
2022/10/30 08:22:54;;;;;;;105.32;42.92;;;12.90;99.90;;;;;;5053034;28;20480;-70
2022/10/30 08:25:23;;;;;;;95.20;40.50;;;13.10;99.90;;;;;;5053226;28;20021;-70
2022/10/30 08:27:51;;;;;;;111.32;43.53;;;13.20;99.90;;;;;;5051960;28;20067;-71
2022/10/30 08:30:17;;;;;;;110.00;42.83;;;13.40;99.90;;;;;;5053452;28;20028;-70
2022/10/30 08:32:43;;;;;;;108.20;44.65;;;13.50;99.90;;;;;;5053380;28;20025;-70
2022/10/30 08:35:08;;;;;;;96.68;40.85;;;13.60;99.90;;;;;;5064193;28;20518;-70
2022/10/30 08:37:34;;;;;;;104.25;40.75;;;13.70;99.90;;;;;;5073154;28;20039;-70
2022/10/30 08:39:59;;;;;;;100.72;41.25;;;13.80;99.90;;;;;;5061254;28;20033;-70
2022/10/30 08:42:25;;;;;;;93.35;42.08;;;13.90;99.90;;;;;;5053249;28;20029;-70
2022/10/30 08:44:51;;;;;;;86.65;37.88;;;14.10;99.90;;;;;;5053167;28;20362;-70
2022/10/30 08:47:16;;;;;;;98.68;41.33;;;14.10;99.90;;;;;;5053605;28;20067;-70
2022/10/30 08:49:42;;;;;;;107.53;39.55;;;14.10;99.90;;;;;;5053141;28;20033;-70
2022/10/30 08:52:08;;;;;;;122.72;41.67;;;14.20;99.90;;;;;;5053050;28;20024;-70
2022/10/30 08:54:34;;;;;;;94.35;38.00;;;14.10;99.90;;;;;;5053336;28;20108;-70
2022/10/30 08:56:59;;;;;;;102.03;41.33;;;14.10;99.90;;;;;;5052592;28;20060;-70
2022/10/30 08:59:25;;;;;;;115.32;38.83;;;14.10;99.90;;;;;;5035564;28;20037;-70
2022/10/30 09:01:50;;;;;;;102.75;40.30;;;14.30;99.90;;;;;;5055478;28;20029;-70
2022/10/30 09:04:16;;;;;;;93.07;37.65;;;14.30;99.90;;;;;;5069030;28;20024;-70
2022/10/30 09:06:41;;;;;;;98.53;38.72;;;14.40;99.90;;;;;;5072757;28;20072;-71
2022/10/30 09:09:07;;;;;;;91.60;37.60;;;14.40;99.90;;;;;;5070651;28;20094;-70
2022/10/30 09:11:33;;;;;;;101.22;36.60;;;14.40;99.90;;;;;;5072753;28;20151;-69
2022/10/30 09:13:58;;;;;;;80.47;38.20;;;14.40;99.90;;;;;;5072836;28;20028;-70
2022/10/30 09:16:24;;;;;;;99.72;38.03;;;14.40;99.90;;;;;;5070608;28;20504;-70
2022/10/30 09:18:49;;;;;;;77.68;37.10;;;14.50;99.90;;;;;;5072796;28;20036;-70
2022/10/30 09:21:15;;;;;;;98.13;39.60;;;14.60;99.90;;;;;;5072642;28;20033;-70
2022/10/30 09:23:42;;;;;;;81.25;36.10;;;14.50;99.90;;;;;;5072809;28;20028;-70
2022/10/30 09:26:08;;;;;;;92.97;36.95;;;14.60;99.90;;;;;;5072881;28;20086;-70
2022/10/30 09:28:33;;;;;;;99.70;39.17;;;14.50;99.90;;;;;;5072750;28;20028;-69
2022/10/30 09:31:00;;;;;;;92.53;36.67;;;14.60;99.90;;;;;;5069816;28;20029;-69
2022/10/30 09:33:26;;;;;;;77.30;36.33;;;14.60;99.90;;;;;;5070861;28;20488;-70
2022/10/30 09:35:51;;;;;;;95.45;37.15;;;14.70;99.90;;;;;;5072645;28;20024;-70
2022/10/30 09:38:17;;;;;;;93.50;37.25;;;14.80;99.90;;;;;;5073075;28;20024;-70
2022/10/30 09:40:51;;;;;;;79.43;35.50;;;14.90;99.90;;;;;;5072522;28;20021;-69
2022/10/30 09:43:29;;;;;;;82.07;37.28;;;15.00;99.90;;;;;;5072691;28;20027;-70
2022/10/30 09:46:20;;;;;;;105.03;38.38;;;15.10;99.90;;;;;;5072675;28;20033;-70
2022/10/30 09:49:01;;;;;;;89.85;38.55;;;15.20;99.90;;;;;;5072017;28;20059;-70
2022/10/30 09:51:56;;;;;;;86.47;36.38;;;15.30;99.90;;;;;;5074628;28;20032;-70
2022/10/30 09:54:44;;;;;;;99.15;33.13;;;15.30;99.90;;;;;;5076006;28;20028;-70
2022/10/30 09:57:27;;;;;;;99.15;34.75;;;15.40;99.90;;;;;;5076026;28;20029;-70
2022/10/30 10:00:07;;;;;;;86.50;35.10;;;15.40;99.90;;;;;;5076092;28;20099;-70
2022/10/30 10:02:36;;;;;;;76.60;31.75;;;15.40;99.90;;;;;;5071629;28;20040;-70
2022/10/30 10:05:27;;;;;;;80.93;34.67;;;15.40;99.90;;;;;;5069891;28;20024;-70
2022/10/30 10:07:59;;;;;;;87.07;34.00;;;15.40;99.90;;;;;;5050842;28;20049;-70
2022/10/30 10:10:50;;;;;;;65.07;30.95;;;15.50;99.90;;;;;;5068261;28;20025;-70
2022/10/30 10:13:40;;;;;;;74.18;31.27;;;15.70;99.90;;;;;;5055263;28;20029;-70
2022/10/30 10:16:32;;;;;;;79.22;30.33;;;15.80;99.90;;;;;;5056024;28;20032;-70
2022/10/30 10:19:06;;;;;;;73.57;31.92;;;16.00;99.90;;;;;;5062209;28;20020;-69
2022/10/30 10:21:35;;;;;;;78.25;30.77;;;16.10;99.90;;;;;;5073754;28;20081;-69
2022/10/30 10:24:03;;;;;;;90.10;31.17;;;16.10;99.90;;;;;;5075177;28;20031;-69
2022/10/30 10:26:45;;;;;;;68.13;30.08;;;16.10;99.90;;;;;;5075453;28;20400;-69
2022/10/30 10:29:25;;;;;;;85.93;30.75;;;16.20;99.90;;;;;;5072632;28;20472;-68
2022/10/30 10:32:24;;;;;;;69.95;28.13;;;16.20;99.90;;;;;;5075835;28;20101;-69
2022/10/30 10:35:15;;;;;;;58.83;27.52;;;16.20;99.90;;;;;;5071596;28;20059;-69
2022/10/30 10:38:10;;;;;;;67.25;27.73;;;16.20;99.90;;;;;;5055854;28;20035;-69
2022/10/30 10:40:48;;;;;;;71.15;28.88;;;16.30;99.90;;;;;;5067629;28;20052;-69
2022/10/30 10:43:19;;;;;;;74.93;27.73;;;16.30;99.90;;;;;;5075727;28;20488;-69
2022/10/30 10:46:25;;;;;;;65.97;28.45;;;16.40;99.90;;;;;;5074829;28;20024;-69
2022/10/30 10:49:08;;;;;;;52.10;24.90;;;16.50;99.90;;;;;;5075159;28;20024;-69
2022/10/30 10:51:40;;;;;;;70.82;26.33;;;16.60;99.90;;;;;;5073375;28;20033;-69
2022/10/30 10:54:21;;;;;;;54.88;26.60;;;16.60;99.90;;;;;;5072888;28;20036;-69
2022/10/30 10:56:50;;;;;;;66.07;24.15;;;16.80;99.90;;;;;;5055837;28;20116;-69
2022/10/30 10:59:25;;;;;;;57.45;24.20;;;16.90;99.90;;;;;;5054351;28;20032;-69
2022/10/30 11:02:16;;;;;;;67.15;25.13;;;17.10;99.90;;;;;;5054657;28;20036;-70
2022/10/30 11:04:46;;;;;;;54.85;23.20;;;17.20;99.90;;;;;;5055096;28;20109;-71
2022/10/30 11:07:17;;;;;;;56.40;23.85;;;17.30;99.90;;;;;;5054547;28;20112;-70
2022/10/30 11:09:44;;;;;;;67.85;23.80;;;17.20;99.90;;;;;;5054996;28;20025;-70
2022/10/30 11:12:10;;;;;;;63.17;22.45;;;17.20;99.90;;;;;;5054159;28;20499;-70
2022/10/30 11:14:36;;;;;;;50.70;22.40;;;17.00;99.90;;;;;;5054685;28;20064;-71
2022/10/30 11:17:16;;;;;;;56.28;23.98;;;17.00;99.90;;;;;;5054505;28;20029;-70
2022/10/30 11:19:41;;;;;;;49.38;22.83;;;17.10;99.90;;;;;;5054862;28;20052;-70
2022/10/30 11:22:23;;;;;;;44.38;20.42;;;17.30;99.90;;;;;;5053874;28;20487;-70
2022/10/30 11:24:48;;;;;;;47.08;21.58;;;17.50;99.90;;;;;;5054941;28;20032;-70
2022/10/30 11:27:22;;;;;;;54.92;22.42;;;17.50;99.90;;;;;;5054322;28;20033;-70
2022/10/30 11:30:00;;;;;;;49.75;21.08;;;17.50;99.90;;;;;;5054390;28;20029;-70
2022/10/30 11:32:28;;;;;;;52.88;22.23;;;17.70;99.90;;;;;;5053907;28;20039;-70
2022/10/30 11:35:12;;;;;;;41.55;21.33;;;17.90;99.90;;;;;;5054571;28;20029;-71
2022/10/30 11:37:39;;;;;;;54.38;20.27;;;18.00;99.90;;;;;;5054422;28;20100;-70
2022/10/30 11:40:08;;;;;;;41.20;18.90;;;18.00;99.90;;;;;;5053461;28;20036;-70
2022/10/30 11:42:34;;;;;;;48.65;20.95;;;18.00;99.90;;;;;;5054248;28;20025;-71
2022/10/30 11:45:01;;;;;;;48.53;20.45;;;18.00;99.90;;;;;;5054501;28;20483;-70
2022/10/30 11:47:33;;;;;;;39.47;18.08;;;17.90;99.90;;;;;;5053917;28;20056;-71
2022/10/30 11:50:04;;;;;;;49.90;19.80;;;17.90;99.90;;;;;;5053381;28;20428;-71
2022/10/30 11:52:37;;;;;;;53.60;20.52;;;17.80;99.90;;;;;;5054201;28;20029;-71
2022/10/30 11:55:19;;;;;;;50.70;20.70;;;17.90;99.90;;;;;;5053973;28;20024;-70
2022/10/30 11:57:49;;;;;;;44.67;19.25;;;18.00;99.90;;;;;;5054073;28;20060;-71
2022/10/30 12:00:19;;;;;;;43.72;19.40;;;18.30;99.90;;;;;;5053845;28;20111;-71
2022/10/30 12:02:47;;;;;;;54.15;21.92;;;18.40;99.90;;;;;;5053110;28;20086;-71
2022/10/30 12:05:24;;;;;;;55.45;20.20;;;18.40;99.90;;;;;;5053776;28;20013;-71
2022/10/30 12:07:51;;;;;;;41.60;17.85;;;18.50;99.90;;;;;;5053983;28;20112;-71
2022/10/30 12:10:29;;;;;;;49.63;19.10;;;18.70;99.90;;;;;;5053626;28;20075;-71
2022/10/30 12:12:55;;;;;;;39.53;17.83;;;18.70;99.90;;;;;;5052774;28;20044;-71
2022/10/30 12:15:25;;;;;;;52.10;18.75;;;18.80;99.90;;;;;;5053730;28;20024;-71
2022/10/30 12:17:51;;;;;;;40.85;19.10;;;18.60;99.90;;;;;;5053809;28;20067;-71
2022/10/30 12:20:17;;;;;;;53.55;18.58;;;18.70;99.90;;;;;;5053727;28;20029;-71
2022/10/30 12:22:43;;;;;;;54.17;18.58;;;18.70;99.90;;;;;;5053359;28;20029;-71
2022/10/30 12:25:27;;;;;;;50.55;17.83;;;18.80;99.90;;;;;;5053957;28;20028;-71
2022/10/30 12:27:59;;;;;;;;;;;18.90;99.90;;;;;;5053273;28;20017;-71
2022/10/30 12:30:26;;;;;;;46.78;18.75;;;18.90;99.90;;;;;;5053565;28;19909;-71
2022/10/30 12:33:06;;;;;;;41.10;17.33;;;19.10;99.90;;;;;;5053822;28;20021;-71
2022/10/30 12:35:38;;;;;;;42.05;17.50;;;19.30;99.90;;;;;;5053468;28;20079;-71